Time;durP1;ratioP1;P1;durP2;ratioP2;P2;SDS_P1;SDS_P2;PMS_P1;PMS_P2;Temp;Humidity;BMP_temperature;BMP_pressure;BME280_temperature;BME280_humidity;BME280_pressure;Samples;Min_cycle;Max_cycle;Signal;HPM_P1;HPM_P2
2021/10/11 00:05:44;;;;;;;192.35;66.65;;;;;;;2.79;75.26;101394.77;712421;1203;115214;-73
2021/10/11 00:20:46;;;;;;;96.87;32.43;;;;;;;2.56;76.58;101363.69;712530;1203;115481;-73
2021/10/11 00:35:48;;;;;;;240.23;76.43;;;;;;;2.54;76.69;101357.74;723343;1205;114446;-73
2021/10/11 00:50:51;;;;;;;175.40;57.35;;;;;;;2.52;77.00;101333.63;712518;1205;114689;-73
2021/10/11 01:05:54;;;;;;;180.53;59.87;;;;;;;2.25;77.37;101318.22;712466;1203;114788;-72
2021/10/11 01:20:56;;;;;;;182.38;65.53;;;;;;;2.19;77.57;101297.72;712430;1203;114633;-73
2021/10/11 01:35:58;;;;;;;182.88;62.63;;;;;;;2.06;77.61;101281.78;712495;1203;114262;-73
2021/10/11 01:51:00;;;;;;;99.67;36.07;;;;;;;2.00;77.11;101254.39;712409;1205;114985;-73
2021/10/11 02:06:03;;;;;;;99.80;36.27;;;;;;;1.84;77.92;101238.58;712343;1203;115710;-73
2021/10/11 02:21:05;;;;;;;50.05;21.13;;;;;;;1.88;77.41;101213.45;712483;1206;115443;-73
2021/10/11 02:36:07;;;;;;;74.57;27.93;;;;;;;1.59;78.31;101192.89;712437;1205;115310;-73
2021/10/11 02:51:11;;;;;;;85.05;29.30;;;;;;;1.44;78.67;101178.78;712444;1203;115292;-74
2021/10/11 03:06:13;;;;;;;64.77;25.67;;;;;;;1.42;78.84;101165.05;712376;1203;115592;-73
2021/10/11 03:21:17;;;;;;;71.60;28.65;;;;;;;1.38;79.18;101142.78;712386;1203;114420;-73
2021/10/11 03:36:20;;;;;;;124.10;44.15;;;;;;;1.28;78.52;101125.91;712514;1203;115269;-72
2021/10/11 03:51:22;;;;;;;62.20;26.18;;;;;;;1.40;78.72;101114.28;712377;1180;114264;-73
2021/10/11 04:06:24;;;;;;;34.10;16.40;;;;;;;1.43;79.90;101094.34;712384;1208;114016;-71
2021/10/11 04:21:26;;;;;;;44.48;18.63;;;;;;;1.38;80.12;101088.48;712851;1203;114368;-71
2021/10/11 04:36:28;;;;;;;87.65;32.75;;;;;;;1.22;80.07;101077.87;712818;1203;113919;-73
2021/10/11 04:51:31;;;;;;;38.25;16.40;;;;;;;1.20;79.75;101055.55;712409;1203;114551;-72
2021/10/11 05:06:33;;;;;;;65.85;24.25;;;;;;;1.04;80.08;101037.18;714996;1169;115274;-71
2021/10/11 05:21:36;;;;;;;100.85;33.90;;;;;;;0.98;79.44;101027.92;712511;1185;113982;-73
2021/10/11 05:36:39;;;;;;;134.40;45.13;;;;;;;1.06;79.69;101012.14;712211;1202;114292;-73
2021/10/11 05:51:41;;;;;;;141.55;51.00;;;;;;;1.47;80.18;101002.80;712334;1184;115392;-73
2021/10/11 06:06:43;;;;;;;264.85;89.65;;;;;;;1.90;79.82;100984.76;712304;1203;114695;-74
2021/10/11 06:21:45;;;;;;;200.53;68.00;;;;;;;2.62;81.47;100977.44;712316;1202;115453;-73
2021/10/11 06:36:49;;;;;;;161.03;59.40;;;;;;;3.77;80.39;100960.89;712242;1206;115434;-73
2021/10/11 06:51:52;;;;;;;280.47;91.27;;;;;;;4.95;79.80;100973.98;712484;1206;115349;-73
2021/10/11 07:06:54;;;;;;;113.30;51.78;;;;;;;6.76;79.61;100966.33;712312;1203;114828;-76
2021/10/11 07:21:56;;;;;;;71.40;29.65;;;;;;;7.96;76.28;100950.02;712409;1206;114362;-80
2021/10/11 07:36:59;;;;;;;56.73;27.13;;;;;;;7.99;77.00;100934.13;712244;1206;115467;-79
2021/10/11 07:52:02;;;;;;;32.53;18.40;;;;;;;9.57;71.42;100940.70;712344;1181;114139;-81
2021/10/11 08:07:04;;;;;;;32.18;17.40;;;;;;;9.92;70.60;100930.19;712440;1202;115241;-83
2021/10/11 08:22:07;;;;;;;24.63;13.03;;;;;;;9.71;68.23;100924.77;712411;1203;114811;-84
2021/10/11 08:37:10;;;;;;;47.50;19.10;;;;;;;9.28;67.97;100910.44;712577;1202;114780;-82
2021/10/11 08:52:13;;;;;;;42.37;17.70;;;;;;;9.22;68.54;100897.78;712445;1203;115783;-78
2021/10/11 09:07:15;;;;;;;31.50;16.00;;;;;;;9.29;68.07;100885.93;712797;1183;114816;-88
2021/10/11 09:22:31;;;;;;;28.43;15.27;;;;;;;9.91;69.52;100842.05;712482;1202;115463;-71
2021/10/11 09:37:37;;;;;;;31.65;17.00;;;;;;;10.20;69.30;100838.98;712507;1185;114433;-71
2021/10/11 09:52:43;;;;;;;46.85;21.30;;;;;;;10.84;68.74;100815.66;712892;1178;114637;-76
2021/10/11 10:07:51;;;;;;;39.07;17.40;;;;;;;11.41;66.87;100814.45;712414;1203;114075;-77
2021/10/11 10:22:54;;;;;;;29.50;16.47;;;;;;;11.80;65.12;100782.33;712743;1202;114866;-74
2021/10/11 10:37:57;;;;;;;42.90;22.00;;;;;;;11.68;65.19;100762.33;712586;1202;115667;-74
2021/10/11 10:53:01;;;;;;;27.80;15.70;;;;;;;11.81;63.88;100748.02;712872;1206;114765;-73
2021/10/11 11:08:04;;;;;;;38.83;22.83;;;;;;;12.11;63.97;100735.00;712746;1206;114726;-73
2021/10/11 11:23:13;;;;;;;33.75;16.65;;;;;;;12.05;63.85;100717.13;712552;1202;116053;-74
2021/10/11 11:38:19;;;;;;;36.70;18.15;;;;;;;12.03;62.64;100698.03;712717;1195;115698;-77
2021/10/11 11:53:24;;;;;;;54.95;23.18;;;;;;;12.13;61.97;100693.63;713252;1179;114261;-73
2021/10/11 12:08:27;;;;;;;46.63;22.50;;;;;;;12.40;60.77;100681.63;714107;1206;114664;-72
2021/10/11 12:23:38;;;;;;;27.33;13.43;;;;;;;13.04;60.28;100651.23;712543;1202;115849;-72
2021/10/11 12:38:41;;;;;;;31.83;15.35;;;;;;;13.92;58.32;100627.17;712542;1202;115405;-72
2021/10/11 12:53:44;;;;;;;27.93;15.23;;;;;;;13.87;57.21;100623.30;712602;1202;116175;-72
2021/10/11 13:08:46;;;;;;;25.68;12.80;;;;;;;14.48;56.63;100593.52;712529;1206;115948;-76
2021/10/11 13:23:49;;;;;;;29.50;16.40;;;;;;;16.47;54.40;100582.72;712794;1203;113895;-76
2021/10/11 16:12:15;;;;;;;39.30;22.70;;;;;;;11.74;60.50;100491.94;712862;1203;114792;-74
2021/10/11 16:27:18;;;;;;;42.50;23.75;;;;;;;11.66;62.36;100494.42;712776;1203;115085;-73
2021/10/11 16:42:21;;;;;;;82.78;36.60;;;;;;;11.53;63.40;100485.98;712585;1178;115832;-74
2021/10/11 16:57:25;;;;;;;395.83;131.38;;;;;;;11.43;64.67;100486.80;712728;1202;115981;-73
2021/10/11 17:12:28;;;;;;;133.93;47.77;;;;;;;11.11;66.05;100486.98;713966;1203;118278;-74
2021/10/11 17:27:31;;;;;;;84.00;38.00;;;;;;;10.61;68.49;100487.75;712684;1203;115079;-74
2021/10/11 17:42:34;;;;;;;123.23;41.95;;;;;;;10.29;69.40;100473.77;712843;1177;115702;-74
2021/10/11 17:57:37;;;;;;;80.70;36.15;;;;;;;9.91;71.40;100464.69;713665;1192;113747;-73
2021/10/11 18:12:40;;;;;;;281.65;101.40;;;;;;;9.53;72.75;100449.45;713419;1178;114601;-73
2021/10/11 18:27:43;;;;;;;138.20;54.70;;;;;;;9.04;75.28;100456.83;712778;1178;114432;-74
2021/10/11 18:42:46;;;;;;;93.30;44.35;;;;;;;8.81;77.07;100436.75;712838;1206;114664;-72
2021/10/11 18:57:51;;;;;;;132.50;56.28;;;;;;;8.50;79.25;100433.09;712837;1178;114143;-73
2021/10/11 19:12:54;;;;;;;64.05;31.78;;;;;;;8.30;79.71;100426.72;712595;1196;114380;-77
2021/10/11 19:28:01;;;;;;;47.65;25.05;;;;;;;8.14;82.42;100416.61;712743;1180;114800;-71
2021/10/11 19:43:05;;;;;;;68.70;31.27;;;;;;;7.94;83.36;100425.95;713067;1177;114687;-71
2021/10/11 19:58:08;;;;;;;48.30;25.40;;;;;;;7.69;86.11;100411.28;712156;1202;114739;-71
2021/10/11 20:13:10;;;;;;;44.65;23.48;;;;;;;7.64;89.91;100399.39;712349;1202;114085;-72
2021/10/11 20:28:12;;;;;;;69.70;27.10;;;;;;;7.83;91.92;100388.40;712352;1179;114051;-73
2021/10/11 20:43:15;;;;;;;45.63;21.77;;;;;;;8.03;94.14;100374.80;712308;1206;114391;-72
2021/10/11 20:58:17;;;;;;;38.53;18.80;;;;;;;8.22;97.55;100363.76;712254;1188;113969;-72
2021/10/11 21:13:20;;;;;;;45.98;20.58;;;;;;;8.40;98.70;100348.45;712610;1202;115616;-72
2021/10/11 21:28:22;;;;;;;42.25;22.20;;;;;;;8.42;98.50;100318.62;712345;1203;114570;-73
2021/10/11 21:43:24;;;;;;;37.38;22.15;;;;;;;8.35;100.00;100303.53;712637;1178;115123;-73
2021/10/11 21:58:29;;;;;;;36.80;19.63;;;;;;;8.37;100.00;100284.16;712504;1203;115041;-73
2021/10/11 22:13:31;;;;;;;36.70;19.08;;;;;;;8.35;100.00;100275.59;712498;1180;114705;-73
2021/10/11 22:28:33;;;;;;;40.80;20.43;;;;;;;8.19;100.00;100262.09;712373;1202;114519;-73
2021/10/11 22:43:36;;;;;;;34.28;17.43;;;;;;;8.00;100.00;100237.41;712462;1202;114711;-73
2021/10/11 22:58:38;;;;;;;39.05;18.30;;;;;;;7.81;100.00;100236.22;712395;1202;114651;-72
2021/10/11 23:13:40;;;;;;;33.50;16.83;;;;;;;7.63;100.00;100217.56;712366;1203;114117;-73
2021/10/11 23:28:42;;;;;;;29.38;16.55;;;;;;;7.49;100.00;100197.72;712265;1206;115127;-73
2021/10/11 23:43:45;;;;;;;30.05;16.43;;;;;;;7.43;100.00;100190.39;712240;1203;114852;-73
2021/10/11 23:58:47;;;;;;;34.43;18.43;;;;;;;7.39;100.00;100181.13;712202;1202;115503;-73
